sensor_id;sensor_type;location;lat;lon;timestamp;temperature;humidity
16970;DHT22;8601;48.718;8.992;2023-10-13T00:02:03;17.90;75.80
16970;DHT22;8601;48.718;8.992;2023-10-13T00:04:31;17.90;75.80
16970;DHT22;8601;48.718;8.992;2023-10-13T00:07:10;17.80;75.20
16970;DHT22;8601;48.718;8.992;2023-10-13T00:09:38;17.70;75.00
16970;DHT22;8601;48.718;8.992;2023-10-13T00:12:06;17.70;75.10
16970;DHT22;8601;48.718;8.992;2023-10-13T00:14:36;17.70;74.50
16970;DHT22;8601;48.718;8.992;2023-10-13T00:17:05;17.70;74.30
16970;DHT22;8601;48.718;8.992;2023-10-13T00:19:35;17.70;73.80
16970;DHT22;8601;48.718;8.992;2023-10-13T00:22:11;17.70;74.20
16970;DHT22;8601;48.718;8.992;2023-10-13T00:24:43;17.60;73.50
16970;DHT22;8601;48.718;8.992;2023-10-13T00:27:19;17.60;73.60
16970;DHT22;8601;48.718;8.992;2023-10-13T00:29:56;17.60;73.80
16970;DHT22;8601;48.718;8.992;2023-10-13T00:32:42;17.60;73.10
16970;DHT22;8601;48.718;8.992;2023-10-13T00:35:10;17.50;73.80
16970;DHT22;8601;48.718;8.992;2023-10-13T00:37:50;17.50;74.20
16970;DHT22;8601;48.718;8.992;2023-10-13T00:40:20;17.50;74.30
16970;DHT22;8601;48.718;8.992;2023-10-13T00:43:07;17.50;73.60
16970;DHT22;8601;48.718;8.992;2023-10-13T00:45:54;17.50;74.50
16970;DHT22;8601;48.718;8.992;2023-10-13T00:48:24;17.40;74.00
16970;DHT22;8601;48.718;8.992;2023-10-13T00:50:56;17.40;74.50
16970;DHT22;8601;48.718;8.992;2023-10-13T00:53:25;17.40;75.20
16970;DHT22;8601;48.718;8.992;2023-10-13T00:55:53;17.30;75.00
16970;DHT22;8601;48.718;8.992;2023-10-13T00:58:22;17.20;75.50
16970;DHT22;8601;48.718;8.992;2023-10-13T01:00:49;17.10;75.60
16970;DHT22;8601;48.718;8.992;2023-10-13T01:03:22;17.00;75.80
16970;DHT22;8601;48.718;8.992;2023-10-13T01:05:52;16.90;76.50
16970;DHT22;8601;48.718;8.992;2023-10-13T01:08:31;16.80;76.20
16970;DHT22;8601;48.718;8.992;2023-10-13T01:11:01;16.80;75.80
16970;DHT22;8601;48.718;8.992;2023-10-13T01:13:28;16.80;75.80
16970;DHT22;8601;48.718;8.992;2023-10-13T01:15:56;16.80;74.70
16970;DHT22;8601;48.718;8.992;2023-10-13T01:18:23;16.80;74.50
16970;DHT22;8601;48.718;8.992;2023-10-13T01:20:54;16.90;74.90
16970;DHT22;8601;48.718;8.992;2023-10-13T01:23:54;16.90;74.60
16970;DHT22;8601;48.718;8.992;2023-10-13T01:26:20;16.90;74.50
16970;DHT22;8601;48.718;8.992;2023-10-13T01:28:50;16.80;74.70
16970;DHT22;8601;48.718;8.992;2023-10-13T01:31:17;16.80;74.50
16970;DHT22;8601;48.718;8.992;2023-10-13T01:33:51;16.90;75.20
16970;DHT22;8601;48.718;8.992;2023-10-13T01:36:21;16.80;75.30
16970;DHT22;8601;48.718;8.992;2023-10-13T01:38:48;16.70;76.60
16970;DHT22;8601;48.718;8.992;2023-10-13T01:41:17;16.70;77.00
16970;DHT22;8601;48.718;8.992;2023-10-13T01:43:43;16.60;76.90
16970;DHT22;8601;48.718;8.992;2023-10-13T01:46:11;16.50;76.50
16970;DHT22;8601;48.718;8.992;2023-10-13T01:48:39;16.50;76.40
16970;DHT22;8601;48.718;8.992;2023-10-13T01:51:06;16.50;75.90
16970;DHT22;8601;48.718;8.992;2023-10-13T01:53:36;16.50;76.60
16970;DHT22;8601;48.718;8.992;2023-10-13T01:56:04;16.50;76.10
16970;DHT22;8601;48.718;8.992;2023-10-13T01:58:37;16.50;75.90
16970;DHT22;8601;48.718;8.992;2023-10-13T02:01:07;16.50;76.00
16970;DHT22;8601;48.718;8.992;2023-10-13T02:03:33;16.50;76.20
16970;DHT22;8601;48.718;8.992;2023-10-13T02:06:02;16.40;76.40
16970;DHT22;8601;48.718;8.992;2023-10-13T02:08:33;16.40;76.50
16970;DHT22;8601;48.718;8.992;2023-10-13T02:11:16;16.40;76.20
16970;DHT22;8601;48.718;8.992;2023-10-13T02:13:45;16.50;76.60
16970;DHT22;8601;48.718;8.992;2023-10-13T02:16:16;16.40;76.60
16970;DHT22;8601;48.718;8.992;2023-10-13T02:18:57;16.40;77.00
16970;DHT22;8601;48.718;8.992;2023-10-13T02:21:30;16.40;77.40
16970;DHT22;8601;48.718;8.992;2023-10-13T02:23:57;16.30;77.60
16970;DHT22;8601;48.718;8.992;2023-10-13T02:26:29;16.30;78.10
16970;DHT22;8601;48.718;8.992;2023-10-13T02:28:58;16.20;78.50
16970;DHT22;8601;48.718;8.992;2023-10-13T02:31:27;16.20;78.00
16970;DHT22;8601;48.718;8.992;2023-10-13T02:33:53;16.20;78.10
16970;DHT22;8601;48.718;8.992;2023-10-13T02:36:20;16.20;77.80
16970;DHT22;8601;48.718;8.992;2023-10-13T02:38:48;16.20;78.00
16970;DHT22;8601;48.718;8.992;2023-10-13T02:41:18;16.20;77.70
16970;DHT22;8601;48.718;8.992;2023-10-13T02:43:51;16.20;77.50
16970;DHT22;8601;48.718;8.992;2023-10-13T02:46:20;16.10;77.40
16970;DHT22;8601;48.718;8.992;2023-10-13T02:48:47;16.10;78.10
16970;DHT22;8601;48.718;8.992;2023-10-13T02:51:19;15.90;77.60
16970;DHT22;8601;48.718;8.992;2023-10-13T02:53:48;15.90;77.80
16970;DHT22;8601;48.718;8.992;2023-10-13T02:56:15;15.90;77.90
16970;DHT22;8601;48.718;8.992;2023-10-13T02:58:55;15.90;78.10
16970;DHT22;8601;48.718;8.992;2023-10-13T03:01:24;15.90;77.90
16970;DHT22;8601;48.718;8.992;2023-10-13T03:03:54;15.80;78.20
16970;DHT22;8601;48.718;8.992;2023-10-13T03:06:24;15.80;77.90
16970;DHT22;8601;48.718;8.992;2023-10-13T03:08:58;15.80;78.20
16970;DHT22;8601;48.718;8.992;2023-10-13T03:11:26;15.80;78.20
16970;DHT22;8601;48.718;8.992;2023-10-13T03:13:57;15.80;78.30
16970;DHT22;8601;48.718;8.992;2023-10-13T03:16:25;15.80;78.20
16970;DHT22;8601;48.718;8.992;2023-10-13T03:18:54;15.80;77.70
16970;DHT22;8601;48.718;8.992;2023-10-13T03:21:31;15.80;78.20
16970;DHT22;8601;48.718;8.992;2023-10-13T03:24:02;15.80;78.60
16970;DHT22;8601;48.718;8.992;2023-10-13T03:26:33;15.80;78.60
16970;DHT22;8601;48.718;8.992;2023-10-13T03:29:09;15.80;78.70
16970;DHT22;8601;48.718;8.992;2023-10-13T03:31:40;15.80;79.30
16970;DHT22;8601;48.718;8.992;2023-10-13T03:34:11;15.70;79.70
16970;DHT22;8601;48.718;8.992;2023-10-13T03:36:38;15.70;79.80
16970;DHT22;8601;48.718;8.992;2023-10-13T03:39:24;15.70;79.40
16970;DHT22;8601;48.718;8.992;2023-10-13T03:41:57;15.70;79.30
16970;DHT22;8601;48.718;8.992;2023-10-13T03:44:25;15.70;79.50
16970;DHT22;8601;48.718;8.992;2023-10-13T03:46:57;15.80;79.10
16970;DHT22;8601;48.718;8.992;2023-10-13T03:49:34;15.80;79.20
16970;DHT22;8601;48.718;8.992;2023-10-13T03:52:04;15.70;79.30
16970;DHT22;8601;48.718;8.992;2023-10-13T03:54:40;15.60;79.50
16970;DHT22;8601;48.718;8.992;2023-10-13T03:57:07;15.60;80.30
16970;DHT22;8601;48.718;8.992;2023-10-13T03:59:37;15.60;80.60
16970;DHT22;8601;48.718;8.992;2023-10-13T04:02:06;15.50;80.50
16970;DHT22;8601;48.718;8.992;2023-10-13T04:04:43;15.50;80.50
16970;DHT22;8601;48.718;8.992;2023-10-13T04:07:14;15.50;80.80
16970;DHT22;8601;48.718;8.992;2023-10-13T04:10:05;15.50;80.40
16970;DHT22;8601;48.718;8.992;2023-10-13T04:12:49;15.50;80.90
16970;DHT22;8601;48.718;8.992;2023-10-13T04:15:34;15.50;81.10
16970;DHT22;8601;48.718;8.992;2023-10-13T04:18:09;15.40;80.40
16970;DHT22;8601;48.718;8.992;2023-10-13T04:20:59;15.50;80.20
16970;DHT22;8601;48.718;8.992;2023-10-13T04:23:44;15.50;80.70
16970;DHT22;8601;48.718;8.992;2023-10-13T04:26:32;15.50;80.20
16970;DHT22;8601;48.718;8.992;2023-10-13T04:29:10;15.50;80.40
16970;DHT22;8601;48.718;8.992;2023-10-13T04:31:57;15.50;81.10
16970;DHT22;8601;48.718;8.992;2023-10-13T04:34:27;15.50;80.50
16970;DHT22;8601;48.718;8.992;2023-10-13T04:36:54;15.40;80.70
16970;DHT22;8601;48.718;8.992;2023-10-13T04:39:37;15.50;80.80
16970;DHT22;8601;48.718;8.992;2023-10-13T04:42:04;15.40;80.60
16970;DHT22;8601;48.718;8.992;2023-10-13T04:44:55;15.40;81.00
16970;DHT22;8601;48.718;8.992;2023-10-13T04:47:26;15.40;81.00
16970;DHT22;8601;48.718;8.992;2023-10-13T04:49:56;15.40;81.00
16970;DHT22;8601;48.718;8.992;2023-10-13T04:52:26;15.30;80.70
16970;DHT22;8601;48.718;8.992;2023-10-13T04:55:21;15.40;80.80
16970;DHT22;8601;48.718;8.992;2023-10-13T04:58:09;15.40;80.30
16970;DHT22;8601;48.718;8.992;2023-10-13T05:00:40;15.50;80.20
16970;DHT22;8601;48.718;8.992;2023-10-13T05:03:21;15.50;79.80
16970;DHT22;8601;48.718;8.992;2023-10-13T05:06:19;15.50;79.80
16970;DHT22;8601;48.718;8.992;2023-10-13T05:09:06;15.60;79.60
16970;DHT22;8601;48.718;8.992;2023-10-13T05:12:01;15.60;79.30
16970;DHT22;8601;48.718;8.992;2023-10-13T05:14:46;15.70;79.00
16970;DHT22;8601;48.718;8.992;2023-10-13T05:17:30;15.70;79.00
16970;DHT22;8601;48.718;8.992;2023-10-13T05:20:15;15.70;78.80
16970;DHT22;8601;48.718;8.992;2023-10-13T05:23:09;15.60;79.40
16970;DHT22;8601;48.718;8.992;2023-10-13T05:25:53;15.60;78.50
16970;DHT22;8601;48.718;8.992;2023-10-13T05:28:37;15.60;78.30
16970;DHT22;8601;48.718;8.992;2023-10-13T05:31:22;15.60;78.90
16970;DHT22;8601;48.718;8.992;2023-10-13T05:34:06;15.50;78.70
16970;DHT22;8601;48.718;8.992;2023-10-13T05:36:50;15.40;78.60
16970;DHT22;8601;48.718;8.992;2023-10-13T05:39:36;15.40;79.40
16970;DHT22;8601;48.718;8.992;2023-10-13T05:42:22;15.50;78.60
16970;DHT22;8601;48.718;8.992;2023-10-13T05:45:07;15.60;78.80
16970;DHT22;8601;48.718;8.992;2023-10-13T05:48:02;15.70;78.30
16970;DHT22;8601;48.718;8.992;2023-10-13T05:50:37;15.70;78.80
16970;DHT22;8601;48.718;8.992;2023-10-13T05:53:22;15.70;78.80
16970;DHT22;8601;48.718;8.992;2023-10-13T05:56:11;15.60;79.00
16970;DHT22;8601;48.718;8.992;2023-10-13T05:58:55;15.60;78.80
16970;DHT22;8601;48.718;8.992;2023-10-13T06:01:40;15.60;78.80
16970;DHT22;8601;48.718;8.992;2023-10-13T06:04:34;15.70;78.70
16970;DHT22;8601;48.718;8.992;2023-10-13T06:07:18;15.80;78.80
16970;DHT22;8601;48.718;8.992;2023-10-13T06:10:03;15.80;78.30
16970;DHT22;8601;48.718;8.992;2023-10-13T06:12:48;15.80;78.40
16970;DHT22;8601;48.718;8.992;2023-10-13T06:15:36;15.80;78.20
16970;DHT22;8601;48.718;8.992;2023-10-13T06:18:20;15.90;78.00
16970;DHT22;8601;48.718;8.992;2023-10-13T06:21:17;16.00;77.90
16970;DHT22;8601;48.718;8.992;2023-10-13T06:24:02;16.10;77.20
16970;DHT22;8601;48.718;8.992;2023-10-13T06:26:47;16.10;77.00
16970;DHT22;8601;48.718;8.992;2023-10-13T06:29:31;16.10;76.90
16970;DHT22;8601;48.718;8.992;2023-10-13T06:31:58;16.30;76.80
16970;DHT22;8601;48.718;8.992;2023-10-13T06:34:27;16.20;76.30
16970;DHT22;8601;48.718;8.992;2023-10-13T06:37:05;16.30;76.40
16970;DHT22;8601;48.718;8.992;2023-10-13T06:39:48;16.30;76.40
16970;DHT22;8601;48.718;8.992;2023-10-13T06:42:14;16.30;76.40
16970;DHT22;8601;48.718;8.992;2023-10-13T06:44:42;16.20;76.30
16970;DHT22;8601;48.718;8.992;2023-10-13T06:47:11;16.20;76.70
16970;DHT22;8601;48.718;8.992;2023-10-13T06:49:38;16.20;77.20
16970;DHT22;8601;48.718;8.992;2023-10-13T06:52:10;16.20;77.50
16970;DHT22;8601;48.718;8.992;2023-10-13T06:54:36;16.20;77.10
16970;DHT22;8601;48.718;8.992;2023-10-13T06:57:04;16.30;77.30
16970;DHT22;8601;48.718;8.992;2023-10-13T06:59:33;16.30;77.40
16970;DHT22;8601;48.718;8.992;2023-10-13T07:02:02;16.30;77.90
16970;DHT22;8601;48.718;8.992;2023-10-13T07:04:31;16.30;77.60
16970;DHT22;8601;48.718;8.992;2023-10-13T07:06:57;16.30;77.10
16970;DHT22;8601;48.718;8.992;2023-10-13T07:09:29;16.40;76.90
16970;DHT22;8601;48.718;8.992;2023-10-13T07:12:15;16.50;77.10
16970;DHT22;8601;48.718;8.992;2023-10-13T07:14:48;16.50;76.60
16970;DHT22;8601;48.718;8.992;2023-10-13T07:17:18;16.60;76.90
16970;DHT22;8601;48.718;8.992;2023-10-13T07:19:50;16.60;77.50
16970;DHT22;8601;48.718;8.992;2023-10-13T07:22:22;16.70;76.60
16970;DHT22;8601;48.718;8.992;2023-10-13T07:24:52;16.70;76.80
16970;DHT22;8601;48.718;8.992;2023-10-13T07:27:23;16.80;76.60
16970;DHT22;8601;48.718;8.992;2023-10-13T07:29:50;16.90;77.50
16970;DHT22;8601;48.718;8.992;2023-10-13T07:32:23;16.90;76.00
16970;DHT22;8601;48.718;8.992;2023-10-13T07:34:53;17.00;76.00
16970;DHT22;8601;48.718;8.992;2023-10-13T07:37:29;17.00;76.00
16970;DHT22;8601;48.718;8.992;2023-10-13T07:39:59;17.10;75.20
16970;DHT22;8601;48.718;8.992;2023-10-13T07:42:26;17.10;75.20
16970;DHT22;8601;48.718;8.992;2023-10-13T07:44:57;17.20;75.00
16970;DHT22;8601;48.718;8.992;2023-10-13T07:47:25;17.20;74.90
16970;DHT22;8601;48.718;8.992;2023-10-13T07:49:53;17.30;74.30
16970;DHT22;8601;48.718;8.992;2023-10-13T07:52:22;17.30;74.70
16970;DHT22;8601;48.718;8.992;2023-10-13T07:54:53;17.30;74.50
16970;DHT22;8601;48.718;8.992;2023-10-13T07:57:26;17.40;74.60
16970;DHT22;8601;48.718;8.992;2023-10-13T07:59:55;17.40;73.40
16970;DHT22;8601;48.718;8.992;2023-10-13T08:02:35;17.50;73.60
16970;DHT22;8601;48.718;8.992;2023-10-13T08:05:24;17.50;73.80
16970;DHT22;8601;48.718;8.992;2023-10-13T08:07:55;17.80;83.70
16970;DHT22;8601;48.718;8.992;2023-10-13T08:10:22;18.10;77.40
16970;DHT22;8601;48.718;8.992;2023-10-13T08:12:56;18.10;72.40
16970;DHT22;8601;48.718;8.992;2023-10-13T08:15:24;18.10;71.60
16970;DHT22;8601;48.718;8.992;2023-10-13T08:17:58;18.20;71.30
16970;DHT22;8601;48.718;8.992;2023-10-13T08:20:30;18.20;70.50
16970;DHT22;8601;48.718;8.992;2023-10-13T08:23:04;18.30;70.40
16970;DHT22;8601;48.718;8.992;2023-10-13T08:25:39;18.40;70.40
16970;DHT22;8601;48.718;8.992;2023-10-13T08:28:21;18.50;70.00
16970;DHT22;8601;48.718;8.992;2023-10-13T08:31:05;18.60;68.70
16970;DHT22;8601;48.718;8.992;2023-10-13T08:33:47;18.80;68.00
16970;DHT22;8601;48.718;8.992;2023-10-13T08:36:20;18.90;66.80
16970;DHT22;8601;48.718;8.992;2023-10-13T08:38:56;19.00;67.40
16970;DHT22;8601;48.718;8.992;2023-10-13T08:41:24;19.10;66.60
16970;DHT22;8601;48.718;8.992;2023-10-13T08:44:22;19.30;67.30
16970;DHT22;8601;48.718;8.992;2023-10-13T08:46:59;19.50;66.10
16970;DHT22;8601;48.718;8.992;2023-10-13T08:49:33;19.70;64.80
16970;DHT22;8601;48.718;8.992;2023-10-13T08:52:09;19.90;64.70
16970;DHT22;8601;48.718;8.992;2023-10-13T08:54:50;20.10;62.70
16970;DHT22;8601;48.718;8.992;2023-10-13T08:57:30;20.40;62.60
16970;DHT22;8601;48.718;8.992;2023-10-13T09:00:00;20.60;62.50
16970;DHT22;8601;48.718;8.992;2023-10-13T09:02:41;20.90;62.60
16970;DHT22;8601;48.718;8.992;2023-10-13T09:05:46;21.20;60.70
16970;DHT22;8601;48.718;8.992;2023-10-13T09:08:32;21.50;60.20
16970;DHT22;8601;48.718;8.992;2023-10-13T09:11:11;21.90;59.20
16970;DHT22;8601;48.718;8.992;2023-10-13T09:13:38;22.20;58.40
16970;DHT22;8601;48.718;8.992;2023-10-13T09:16:12;22.40;58.90
16970;DHT22;8601;48.718;8.992;2023-10-13T09:18:48;22.60;58.70
16970;DHT22;8601;48.718;8.992;2023-10-13T09:21:18;22.80;57.60
16970;DHT22;8601;48.718;8.992;2023-10-13T09:24:13;23.10;56.40
16970;DHT22;8601;48.718;8.992;2023-10-13T09:26:47;23.20;55.70
16970;DHT22;8601;48.718;8.992;2023-10-13T09:29:15;23.60;55.10
16970;DHT22;8601;48.718;8.992;2023-10-13T09:31:46;23.80;54.90
16970;DHT22;8601;48.718;8.992;2023-10-13T09:34:21;24.00;55.00
16970;DHT22;8601;48.718;8.992;2023-10-13T09:36:50;23.90;54.40
16970;DHT22;8601;48.718;8.992;2023-10-13T09:39:24;23.60;54.10
16970;DHT22;8601;48.718;8.992;2023-10-13T09:42:01;23.60;54.00
16970;DHT22;8601;48.718;8.992;2023-10-13T09:44:26;23.80;54.00
16970;DHT22;8601;48.718;8.992;2023-10-13T09:47:00;24.10;53.50
16970;DHT22;8601;48.718;8.992;2023-10-13T09:49:39;24.50;53.90
16970;DHT22;8601;48.718;8.992;2023-10-13T09:52:17;24.60;53.10
16970;DHT22;8601;48.718;8.992;2023-10-13T09:55:04;24.70;53.00
16970;DHT22;8601;48.718;8.992;2023-10-13T09:57:37;24.80;53.40
16970;DHT22;8601;48.718;8.992;2023-10-13T10:00:12;25.20;53.20
16970;DHT22;8601;48.718;8.992;2023-10-13T10:02:56;25.40;52.10
16970;DHT22;8601;48.718;8.992;2023-10-13T10:05:40;25.50;51.20
16970;DHT22;8601;48.718;8.992;2023-10-13T10:08:07;25.90;52.60
16970;DHT22;8601;48.718;8.992;2023-10-13T10:10:56;26.20;50.80
16970;DHT22;8601;48.718;8.992;2023-10-13T10:13:35;26.10;49.90
16970;DHT22;8601;48.718;8.992;2023-10-13T10:16:10;26.10;50.90
16970;DHT22;8601;48.718;8.992;2023-10-13T10:18:41;26.10;50.00
16970;DHT22;8601;48.718;8.992;2023-10-13T10:21:08;26.20;49.10
16970;DHT22;8601;48.718;8.992;2023-10-13T10:23:36;26.20;49.30
16970;DHT22;8601;48.718;8.992;2023-10-13T10:26:12;26.00;49.70
16970;DHT22;8601;48.718;8.992;2023-10-13T10:28:42;25.80;49.00
16970;DHT22;8601;48.718;8.992;2023-10-13T10:31:09;25.70;49.20
16970;DHT22;8601;48.718;8.992;2023-10-13T10:33:38;25.20;50.20
16970;DHT22;8601;48.718;8.992;2023-10-13T10:36:28;25.00;49.90
16970;DHT22;8601;48.718;8.992;2023-10-13T10:38:56;25.00;49.90
16970;DHT22;8601;48.718;8.992;2023-10-13T10:41:26;25.00;50.40
16970;DHT22;8601;48.718;8.992;2023-10-13T10:44:09;25.10;50.00
16970;DHT22;8601;48.718;8.992;2023-10-13T10:46:40;25.40;49.90
16970;DHT22;8601;48.718;8.992;2023-10-13T10:49:17;25.70;48.80
16970;DHT22;8601;48.718;8.992;2023-10-13T10:51:57;25.80;49.90
16970;DHT22;8601;48.718;8.992;2023-10-13T10:54:27;25.60;49.80
16970;DHT22;8601;48.718;8.992;2023-10-13T10:56:57;25.50;49.00
16970;DHT22;8601;48.718;8.992;2023-10-13T10:59:36;25.50;49.70
16970;DHT22;8601;48.718;8.992;2023-10-13T11:02:04;25.40;50.90
16970;DHT22;8601;48.718;8.992;2023-10-13T11:04:32;25.40;49.60
16970;DHT22;8601;48.718;8.992;2023-10-13T11:07:02;25.50;49.00
16970;DHT22;8601;48.718;8.992;2023-10-13T11:09:33;25.60;49.70
16970;DHT22;8601;48.718;8.992;2023-10-13T11:12:13;25.70;48.50
16970;DHT22;8601;48.718;8.992;2023-10-13T11:15:00;25.80;48.60
16970;DHT22;8601;48.718;8.992;2023-10-13T11:17:27;25.80;47.90
16970;DHT22;8601;48.718;8.992;2023-10-13T11:20:08;26.00;47.70
16970;DHT22;8601;48.718;8.992;2023-10-13T11:22:45;26.10;46.90
16970;DHT22;8601;48.718;8.992;2023-10-13T11:25:21;26.30;46.90
16970;DHT22;8601;48.718;8.992;2023-10-13T11:27:49;26.30;46.80
16970;DHT22;8601;48.718;8.992;2023-10-13T11:30:27;26.20;47.50
16970;DHT22;8601;48.718;8.992;2023-10-13T11:33:08;26.20;47.90
16970;DHT22;8601;48.718;8.992;2023-10-13T11:35:35;26.20;47.60
16970;DHT22;8601;48.718;8.992;2023-10-13T11:38:22;26.30;48.00
16970;DHT22;8601;48.718;8.992;2023-10-13T11:40:53;26.40;47.30
16970;DHT22;8601;48.718;8.992;2023-10-13T11:43:52;26.50;47.10
16970;DHT22;8601;48.718;8.992;2023-10-13T11:46:20;26.50;46.40
16970;DHT22;8601;48.718;8.992;2023-10-13T11:49:01;26.50;46.60
16970;DHT22;8601;48.718;8.992;2023-10-13T11:51:43;26.40;46.40
16970;DHT22;8601;48.718;8.992;2023-10-13T11:54:13;26.40;47.50
16970;DHT22;8601;48.718;8.992;2023-10-13T11:56:40;26.50;46.30
16970;DHT22;8601;48.718;8.992;2023-10-13T11:59:07;26.60;46.00
16970;DHT22;8601;48.718;8.992;2023-10-13T12:01:42;26.80;46.70
16970;DHT22;8601;48.718;8.992;2023-10-13T12:04:27;26.90;46.60
16970;DHT22;8601;48.718;8.992;2023-10-13T12:07:06;26.90;45.60
16970;DHT22;8601;48.718;8.992;2023-10-13T12:09:44;27.10;45.90
16970;DHT22;8601;48.718;8.992;2023-10-13T12:12:29;27.00;45.40
16970;DHT22;8601;48.718;8.992;2023-10-13T12:14:57;26.90;45.10
16970;DHT22;8601;48.718;8.992;2023-10-13T12:17:34;27.00;45.80
16970;DHT22;8601;48.718;8.992;2023-10-13T12:20:02;27.00;45.40
16970;DHT22;8601;48.718;8.992;2023-10-13T12:22:30;27.00;45.40
16970;DHT22;8601;48.718;8.992;2023-10-13T12:25:06;27.10;45.50
16970;DHT22;8601;48.718;8.992;2023-10-13T12:27:45;27.10;45.90
16970;DHT22;8601;48.718;8.992;2023-10-13T12:30:14;27.30;45.90
16970;DHT22;8601;48.718;8.992;2023-10-13T12:32:48;27.40;44.80
16970;DHT22;8601;48.718;8.992;2023-10-13T12:35:28;27.20;44.70
16970;DHT22;8601;48.718;8.992;2023-10-13T12:38:00;27.00;45.10
16970;DHT22;8601;48.718;8.992;2023-10-13T12:40:32;27.10;43.90
16970;DHT22;8601;48.718;8.992;2023-10-13T12:43:17;27.10;43.90
16970;DHT22;8601;48.718;8.992;2023-10-13T12:46:01;27.10;42.80
16970;DHT22;8601;48.718;8.992;2023-10-13T12:48:46;27.10;41.80
16970;DHT22;8601;48.718;8.992;2023-10-13T12:51:30;27.10;41.20
16970;DHT22;8601;48.718;8.992;2023-10-13T12:54:16;27.20;41.50
16970;DHT22;8601;48.718;8.992;2023-10-13T12:56:55;27.10;41.90
16970;DHT22;8601;48.718;8.992;2023-10-13T12:59:23;27.10;43.00
16970;DHT22;8601;48.718;8.992;2023-10-13T13:01:52;27.10;41.90
16970;DHT22;8601;48.718;8.992;2023-10-13T13:04:19;27.10;42.60
16970;DHT22;8601;48.718;8.992;2023-10-13T13:06:47;27.30;42.60
16970;DHT22;8601;48.718;8.992;2023-10-13T13:09:14;27.40;41.30
16970;DHT22;8601;48.718;8.992;2023-10-13T13:11:41;27.30;40.70
16970;DHT22;8601;48.718;8.992;2023-10-13T13:14:09;27.30;40.20
16970;DHT22;8601;48.718;8.992;2023-10-13T13:16:36;27.40;40.70
16970;DHT22;8601;48.718;8.992;2023-10-13T13:19:05;27.50;40.90
16970;DHT22;8601;48.718;8.992;2023-10-13T13:21:36;27.50;41.00
16970;DHT22;8601;48.718;8.992;2023-10-13T13:24:04;27.50;41.60
16970;DHT22;8601;48.718;8.992;2023-10-13T13:26:36;27.50;40.40
16970;DHT22;8601;48.718;8.992;2023-10-13T13:29:06;27.50;40.20
16970;DHT22;8601;48.718;8.992;2023-10-13T13:31:42;27.60;40.60
16970;DHT22;8601;48.718;8.992;2023-10-13T13:34:10;27.70;40.10
16970;DHT22;8601;48.718;8.992;2023-10-13T13:36:38;27.60;40.20
16970;DHT22;8601;48.718;8.992;2023-10-13T13:39:09;27.70;40.20
16970;DHT22;8601;48.718;8.992;2023-10-13T13:41:36;27.70;39.60
16970;DHT22;8601;48.718;8.992;2023-10-13T13:44:04;27.70;40.00
16970;DHT22;8601;48.718;8.992;2023-10-13T13:46:39;27.70;40.00
16970;DHT22;8601;48.718;8.992;2023-10-13T13:49:09;27.70;40.00
16970;DHT22;8601;48.718;8.992;2023-10-13T13:51:44;27.70;39.90
16970;DHT22;8601;48.718;8.992;2023-10-13T13:54:18;27.60;39.90
16970;DHT22;8601;48.718;8.992;2023-10-13T13:56:45;27.60;40.20
16970;DHT22;8601;48.718;8.992;2023-10-13T13:59:11;27.50;40.10
16970;DHT22;8601;48.718;8.992;2023-10-13T14:01:41;27.50;40.80
16970;DHT22;8601;48.718;8.992;2023-10-13T14:04:11;27.60;40.60
16970;DHT22;8601;48.718;8.992;2023-10-13T14:06:43;27.50;40.50
16970;DHT22;8601;48.718;8.992;2023-10-13T14:09:11;27.50;39.70
16970;DHT22;8601;48.718;8.992;2023-10-13T14:11:42;27.60;40.30
16970;DHT22;8601;48.718;8.992;2023-10-13T14:14:26;27.50;39.60
16970;DHT22;8601;48.718;8.992;2023-10-13T14:16:59;27.40;39.50
16970;DHT22;8601;48.718;8.992;2023-10-13T14:19:34;27.30;39.90
16970;DHT22;8601;48.718;8.992;2023-10-13T14:22:06;27.30;39.90
16970;DHT22;8601;48.718;8.992;2023-10-13T14:24:34;27.10;39.40
16970;DHT22;8601;48.718;8.992;2023-10-13T14:27:03;27.00;38.40
16970;DHT22;8601;48.718;8.992;2023-10-13T14:29:35;27.10;38.80
16970;DHT22;8601;48.718;8.992;2023-10-13T14:32:25;27.00;39.50
16970;DHT22;8601;48.718;8.992;2023-10-13T14:35:01;26.90;37.70
16970;DHT22;8601;48.718;8.992;2023-10-13T14:37:40;26.90;38.00
16970;DHT22;8601;48.718;8.992;2023-10-13T14:40:23;26.90;38.10
16970;DHT22;8601;48.718;8.992;2023-10-13T14:42:50;26.90;39.10
16970;DHT22;8601;48.718;8.992;2023-10-13T14:45:17;26.90;39.50
16970;DHT22;8601;48.718;8.992;2023-10-13T14:47:44;26.90;39.10
16970;DHT22;8601;48.718;8.992;2023-10-13T14:50:13;26.80;39.20
16970;DHT22;8601;48.718;8.992;2023-10-13T14:52:49;26.80;39.00
16970;DHT22;8601;48.718;8.992;2023-10-13T14:55:17;26.80;37.90
16970;DHT22;8601;48.718;8.992;2023-10-13T14:57:47;26.70;38.30
16970;DHT22;8601;48.718;8.992;2023-10-13T15:00:15;26.60;37.80
16970;DHT22;8601;48.718;8.992;2023-10-13T15:02:50;26.60;38.00
16970;DHT22;8601;48.718;8.992;2023-10-13T15:05:26;26.50;38.70
16970;DHT22;8601;48.718;8.992;2023-10-13T15:07:57;26.50;38.80
16970;DHT22;8601;48.718;8.992;2023-10-13T15:10:25;26.50;38.40
16970;DHT22;8601;48.718;8.992;2023-10-13T15:13:09;26.40;38.50
16970;DHT22;8601;48.718;8.992;2023-10-13T15:15:36;26.30;38.60
16970;DHT22;8601;48.718;8.992;2023-10-13T15:18:05;26.20;38.50
16970;DHT22;8601;48.718;8.992;2023-10-13T15:20:39;26.20;38.40
16970;DHT22;8601;48.718;8.992;2023-10-13T15:23:15;26.10;39.20
16970;DHT22;8601;48.718;8.992;2023-10-13T15:25:48;26.00;38.60
16970;DHT22;8601;48.718;8.992;2023-10-13T15:28:15;26.00;38.50
16970;DHT22;8601;48.718;8.992;2023-10-13T15:30:46;26.00;38.20
16970;DHT22;8601;48.718;8.992;2023-10-13T15:33:21;25.90;37.70
16970;DHT22;8601;48.718;8.992;2023-10-13T15:35:49;25.80;39.10
16970;DHT22;8601;48.718;8.992;2023-10-13T15:38:18;25.80;37.90
16970;DHT22;8601;48.718;8.992;2023-10-13T15:40:46;25.70;38.50
16970;DHT22;8601;48.718;8.992;2023-10-13T15:43:20;25.70;37.70
16970;DHT22;8601;48.718;8.992;2023-10-13T15:45:46;25.70;38.40
16970;DHT22;8601;48.718;8.992;2023-10-13T15:48:13;25.60;38.20
16970;DHT22;8601;48.718;8.992;2023-10-13T15:50:41;25.50;37.80
16970;DHT22;8601;48.718;8.992;2023-10-13T15:53:09;25.50;38.00
16970;DHT22;8601;48.718;8.992;2023-10-13T15:55:38;25.50;38.00
16970;DHT22;8601;48.718;8.992;2023-10-13T15:58:05;25.40;38.40
16970;DHT22;8601;48.718;8.992;2023-10-13T16:00:34;25.30;38.10
16970;DHT22;8601;48.718;8.992;2023-10-13T16:03:01;25.30;38.00
16970;DHT22;8601;48.718;8.992;2023-10-13T16:05:36;25.20;38.00
16970;DHT22;8601;48.718;8.992;2023-10-13T16:08:04;25.20;38.10
16970;DHT22;8601;48.718;8.992;2023-10-13T16:10:38;25.10;38.30
16970;DHT22;8601;48.718;8.992;2023-10-13T16:13:22;25.10;38.90
16970;DHT22;8601;48.718;8.992;2023-10-13T16:19:24;24.90;39.00
16970;DHT22;8601;48.718;8.992;2023-10-13T16:21:51;24.70;39.30
16970;DHT22;8601;48.718;8.992;2023-10-13T16:24:19;24.70;40.00
16970;DHT22;8601;48.718;8.992;2023-10-13T16:26:48;24.60;39.70
16970;DHT22;8601;48.718;8.992;2023-10-13T16:29:17;24.50;39.90
16970;DHT22;8601;48.718;8.992;2023-10-13T16:31:45;24.40;40.80
16970;DHT22;8601;48.718;8.992;2023-10-13T16:34:12;24.30;41.00